createdAt,value
2019-02-21T00:03:57.963Z,36.93
2019-02-21T00:14:03.716Z,34.50
2019-02-21T00:19:06.181Z,31.85
2019-02-21T00:24:08.695Z,36.48
2019-02-21T00:29:11.228Z,36.77
2019-02-21T00:34:13.781Z,36.65
2019-02-21T00:39:16.316Z,37.55
2019-02-21T00:49:20.969Z,32.57
2019-02-21T00:59:25.951Z,32.80
2019-02-21T01:04:28.467Z,31.75
2019-02-21T01:09:30.991Z,30.05
2019-02-21T01:14:33.512Z,35.63
2019-02-21T01:19:36.035Z,28.32
2019-02-21T01:24:38.553Z,23.62
2019-02-21T01:34:43.202Z,21.23
2019-02-21T01:44:47.823Z,22.60
2019-02-21T01:49:50.339Z,23.70
2019-02-21T01:54:52.858Z,24.60
2019-02-21T01:59:55.387Z,23.65
2019-02-21T02:10:00.025Z,23.60
2019-02-21T02:15:02.688Z,21.85
2019-02-21T02:20:05.695Z,23.45
2019-02-21T02:25:08.204Z,24.02
2019-02-21T02:35:13.339Z,23.67
2019-02-21T02:40:15.848Z,25.15
2019-02-21T02:45:18.383Z,27.07
2019-02-21T02:50:20.917Z,26.82
2019-02-21T02:55:23.429Z,24.20
2019-02-21T03:05:28.334Z,25.02
2019-02-21T03:10:30.881Z,24.90
2019-02-21T03:20:35.518Z,23.50
2019-02-21T03:30:40.476Z,23.17
2019-02-21T03:35:43.090Z,23.47
2019-02-21T03:45:47.730Z,22.57
2019-02-21T03:55:52.489Z,23.73
2019-02-21T04:00:55.008Z,25.47
2019-02-21T04:10:59.643Z,22.33
2019-02-21T04:21:04.881Z,20.02
2019-02-21T04:31:09.532Z,18.57
2019-02-21T04:41:14.203Z,19.90
2019-02-21T04:51:18.881Z,22.50
2019-02-21T05:01:23.521Z,20.20
2019-02-21T05:11:28.118Z,18.03
2019-02-21T05:21:32.749Z,42.17
2019-02-21T05:32:09.926Z,22.27
2019-02-21T05:37:32.113Z,24.83
2019-02-21T05:43:00.028Z,27.90
2019-02-21T05:48:33.975Z,32.50
2019-02-21T05:54:12.770Z,28.10
2019-02-21T05:59:43.919Z,30.80
2019-02-21T06:05:08.899Z,28.13
2019-02-21T06:10:21.608Z,33.20
2019-02-21T06:20:45.919Z,34.87
2019-02-21T06:26:08.974Z,35.58
2019-02-21T06:31:14.881Z,36.40
2019-02-21T06:36:17.421Z,35.98
2019-02-21T06:46:22.101Z,39.03
2019-02-21T06:51:24.628Z,43.13
2019-02-21T07:01:29.768Z,44.77
2019-02-21T07:06:32.649Z,41.18
2019-02-21T07:11:35.184Z,38.33
2019-02-21T07:16:37.706Z,34.58
2019-02-21T07:21:40.239Z,32.58
2019-02-21T07:31:45.477Z,33.95
2019-02-21T07:36:49.987Z,32.63
2019-02-21T07:41:52.443Z,35.15
2019-02-21T07:51:57.103Z,34.43
2019-02-21T08:02:03.621Z,35.68
2019-02-21T08:12:08.248Z,45.97
2019-02-21T08:17:10.841Z,38.13
2019-02-21T08:22:15.243Z,37.15
2019-02-21T08:32:24.609Z,30.60
2019-02-21T08:37:27.140Z,28.52
2019-02-21T08:42:29.713Z,28.27
2019-02-21T08:52:34.317Z,25.50
2019-02-21T08:57:36.845Z,25.32
2019-02-21T09:02:41.292Z,24.15
2019-02-21T09:07:46.269Z,23.55
2019-02-21T09:12:48.757Z,25.97
2019-02-21T09:17:54.004Z,23.20
2019-02-21T09:22:56.243Z,22.82
2019-02-21T09:33:03.471Z,21.85
2019-02-21T09:43:08.107Z,20.70
2019-02-21T09:53:14.551Z,19.55
2019-02-21T09:58:17.079Z,18.57
2019-02-21T10:03:19.613Z,19.37
2019-02-21T10:13:24.638Z,17.02
2019-02-21T10:18:27.181Z,16.55
2019-02-21T10:28:32.609Z,15.18
2019-02-21T10:33:35.143Z,15.48
2019-02-21T10:38:37.834Z,14.47
2019-02-21T10:48:42.486Z,13.83
2019-02-21T10:53:45.043Z,12.78
2019-02-21T11:03:49.664Z,13.27
2019-02-21T11:13:54.293Z,15.37
2019-02-21T11:18:57.643Z,15.90
2019-02-21T11:24:00.166Z,18.25
2019-02-21T11:29:02.730Z,17.67
2019-02-21T11:34:05.281Z,21.97
2019-02-21T11:39:08.149Z,19.48
2019-02-21T11:44:10.739Z,21.52
2019-02-21T11:49:13.263Z,25.27
2019-02-21T11:54:26.215Z,24.90
2019-02-21T11:59:20.269Z,25.70
2019-02-21T12:04:24.419Z,29.27
2019-02-21T12:09:27.391Z,22.80
2019-02-21T12:14:30.018Z,20.95
2019-02-21T12:19:32.540Z,21.52
2019-02-21T12:24:35.279Z,20.15
2019-02-21T12:29:37.823Z,18.55
2019-02-21T12:34:40.359Z,18.23
2019-02-21T12:39:43.002Z,15.15
2019-02-21T12:44:47.795Z,13.90
2019-02-21T12:49:52.044Z,13.53
2019-02-21T12:54:54.539Z,12.95
2019-02-21T12:59:57.152Z,11.35
2019-02-21T13:05:00.053Z,10.32
2019-02-21T13:10:02.769Z,11.10
2019-02-21T13:15:06.414Z,10.70
2019-02-21T13:20:09.626Z,10.30
2019-02-21T13:25:15.054Z,10.58
2019-02-21T13:30:17.579Z,9.58
2019-02-21T13:35:20.125Z,8.78
2019-02-21T13:40:22.653Z,8.20
2019-02-21T13:45:25.256Z,8.63
2019-02-21T13:50:27.817Z,8.53
2019-02-21T13:55:30.346Z,7.90
2019-02-21T14:00:32.880Z,8.10
2019-02-21T14:05:35.397Z,8.58
2019-02-21T14:10:37.995Z,7.97
2019-02-21T14:15:40.518Z,9.20
2019-02-21T14:20:45.611Z,8.75
2019-02-21T14:25:47.783Z,9.23
2019-02-21T14:30:50.344Z,8.78
2019-02-21T14:35:52.871Z,9.53
2019-02-21T14:40:55.534Z,9.10
2019-02-21T14:45:58.113Z,9.15
2019-02-21T14:51:00.642Z,8.85
2019-02-21T14:56:03.188Z,7.97
2019-02-21T15:01:05.754Z,8.38
2019-02-21T15:06:10.077Z,8.08
2019-02-21T15:11:12.604Z,7.80
2019-02-21T15:16:15.145Z,7.50
2019-02-21T15:21:17.680Z,6.60
2019-02-21T15:26:38.809Z,7.08
2019-02-21T15:32:10.247Z,7.30
2019-02-21T15:42:42.724Z,8.43
2019-02-21T15:48:03.521Z,9.15
2019-02-21T15:53:24.393Z,8.20
2019-02-21T15:58:45.243Z,8.88
2019-02-21T16:03:47.753Z,9.53
2019-02-21T16:08:50.289Z,8.75
2019-02-21T16:14:02.649Z,7.47
2019-02-21T16:18:58.878Z,7.35
2019-02-21T16:24:01.675Z,7.50
2019-02-21T16:29:04.196Z,9.20
2019-02-21T16:34:09.180Z,9.83
2019-02-21T16:39:11.243Z,8.55
2019-02-21T16:44:13.812Z,9.43
2019-02-21T16:49:16.360Z,8.90
2019-02-21T16:54:18.863Z,9.60
2019-02-21T16:59:21.402Z,9.95
2019-02-21T17:04:23.963Z,10.43
2019-02-21T17:09:26.500Z,9.48
2019-02-21T17:14:29.023Z,9.70
2019-02-21T17:19:31.545Z,10.32
2019-02-21T17:24:34.099Z,9.60
2019-02-21T17:29:36.621Z,9.98
2019-02-21T17:34:39.143Z,9.68
2019-02-21T17:39:41.775Z,8.98
2019-02-21T17:44:44.331Z,10.32
2019-02-21T17:49:46.871Z,9.75
2019-02-21T17:54:49.404Z,11.65
2019-02-21T17:59:51.955Z,10.72
2019-02-21T18:04:54.481Z,10.78
2019-02-21T18:14:59.205Z,14.30
2019-02-21T18:20:01.841Z,16.60
2019-02-21T18:25:07.032Z,16.42
2019-02-21T18:30:11.176Z,21.12
2019-02-21T18:35:13.702Z,21.87
2019-02-21T18:45:20.546Z,26.27
2019-02-21T18:50:23.071Z,24.05
2019-02-21T19:00:27.834Z,22.33
2019-02-21T19:05:36.036Z,23.80
2019-02-21T19:10:34.797Z,27.80
2019-02-21T19:20:40.220Z,34.08
2019-02-21T19:25:44.162Z,42.10
2019-02-21T19:30:53.577Z,56.02
2019-02-21T19:35:56.109Z,32.58
2019-02-21T19:46:00.768Z,26.27
2019-02-21T19:56:05.493Z,28.90
2019-02-21T20:06:10.307Z,26.40
2019-02-21T20:16:14.980Z,29.97
2019-02-21T20:26:19.638Z,32.33
2019-02-21T20:31:22.139Z,27.90
2019-02-21T20:36:25.289Z,29.42
2019-02-21T20:41:27.838Z,25.00
2019-02-21T20:46:30.433Z,26.17
2019-02-21T21:01:38.089Z,45.70
2019-02-21T21:06:40.619Z,55.17
2019-02-21T21:16:45.269Z,22.52
2019-02-21T21:21:47.932Z,17.42
2019-02-21T21:26:50.555Z,29.55
2019-02-21T21:36:55.251Z,23.13
2019-02-21T21:46:59.958Z,26.90
2019-02-21T21:52:02.489Z,25.97
2019-02-21T21:57:05.049Z,20.50
2019-02-21T22:07:09.861Z,19.17
2019-02-21T22:17:14.588Z,19.23
2019-02-21T22:22:17.118Z,19.50
2019-02-21T22:27:20.155Z,17.52
2019-02-21T22:32:23.540Z,19.00
2019-02-21T22:37:26.053Z,19.50
2019-02-21T22:42:28.582Z,21.95
2019-02-21T22:47:31.119Z,50.28
2019-02-21T22:52:33.652Z,34.90
2019-02-21T22:57:36.265Z,33.92
2019-02-21T23:08:20.158Z,54.00
2019-02-21T23:13:22.695Z,37.28
2019-02-21T23:18:25.224Z,38.88
2019-02-21T23:23:28.039Z,39.83
2019-02-21T23:28:30.575Z,35.35
2019-02-21T23:33:35.782Z,29.95
2019-02-21T23:38:38.303Z,33.23
2019-02-21T23:43:40.822Z,35.38
2019-02-21T23:48:43.359Z,32.55
2019-02-21T23:53:46.187Z,29.92
2019-02-21T23:58:48.718Z,30.90
